sensor_id;sensor_type;location;lat;lon;timestamp;P1;durP1;ratioP1;P2;durP2;ratioP2
34102;SDS011;20381;54.498;18.206;2022-08-11T00:00:08;13.68;;;8.30;;
34102;SDS011;20381;54.498;18.206;2022-08-11T00:02:40;16.23;;;8.73;;
34102;SDS011;20381;54.498;18.206;2022-08-11T00:05:15;20.92;;;10.38;;
34102;SDS011;20381;54.498;18.206;2022-08-11T00:07:46;13.58;;;8.60;;
34102;SDS011;20381;54.498;18.206;2022-08-11T00:12:52;21.80;;;10.82;;
34102;SDS011;20381;54.498;18.206;2022-08-11T00:15:23;20.52;;;9.38;;
34102;SDS011;20381;54.498;18.206;2022-08-11T00:17:59;22.17;;;11.38;;
34102;SDS011;20381;54.498;18.206;2022-08-11T00:20:29;15.83;;;9.35;;
34102;SDS011;20381;54.498;18.206;2022-08-11T00:23:02;29.63;;;15.28;;
34102;SDS011;20381;54.498;18.206;2022-08-11T00:25:43;46.57;;;21.27;;
34102;SDS011;20381;54.498;18.206;2022-08-11T00:28:24;46.00;;;21.50;;
34102;SDS011;20381;54.498;18.206;2022-08-11T00:31:06;36.45;;;17.87;;
34102;SDS011;20381;54.498;18.206;2022-08-11T00:33:42;61.15;;;26.62;;
34102;SDS011;20381;54.498;18.206;2022-08-11T00:36:11;78.65;;;33.38;;
34102;SDS011;20381;54.498;18.206;2022-08-11T00:38:42;86.60;;;36.50;;
34102;SDS011;20381;54.498;18.206;2022-08-11T01:13:52;20.80;;;11.10;;
34102;SDS011;20381;54.498;18.206;2022-08-11T01:42:53;32.75;;;15.85;;
34102;SDS011;20381;54.498;18.206;2022-08-11T01:45:58;32.80;;;16.42;;
34102;SDS011;20381;54.498;18.206;2022-08-11T01:59:53;41.75;;;19.85;;
34102;SDS011;20381;54.498;18.206;2022-08-11T02:05:35;46.80;;;21.55;;
34102;SDS011;20381;54.498;18.206;2022-08-11T02:11:20;42.20;;;19.32;;
34102;SDS011;20381;54.498;18.206;2022-08-11T02:17:03;35.48;;;17.85;;
34102;SDS011;20381;54.498;18.206;2022-08-11T02:26:04;14.00;;;9.38;;
34102;SDS011;20381;54.498;18.206;2022-08-11T02:35:07;16.97;;;11.50;;
34102;SDS011;20381;54.498;18.206;2022-08-11T02:37:57;21.42;;;7.95;;
34102;SDS011;20381;54.498;18.206;2022-08-11T02:40:34;12.23;;;8.90;;
34102;SDS011;20381;54.498;18.206;2022-08-11T02:54:38;21.52;;;8.55;;
34102;SDS011;20381;54.498;18.206;2022-08-11T03:00:07;41.30;;;10.90;;
34102;SDS011;20381;54.498;18.206;2022-08-11T03:02:46;27.95;;;9.90;;
34102;SDS011;20381;54.498;18.206;2022-08-11T03:05:47;104.38;;;14.75;;
34102;SDS011;20381;54.498;18.206;2022-08-11T03:08:30;55.58;;;12.68;;
34102;SDS011;20381;54.498;18.206;2022-08-11T03:11:10;17.37;;;11.63;;
34102;SDS011;20381;54.498;18.206;2022-08-11T03:14:15;22.42;;;12.25;;
34102;SDS011;20381;54.498;18.206;2022-08-11T03:20:12;25.45;;;11.03;;
34102;SDS011;20381;54.498;18.206;2022-08-11T03:26:04;19.45;;;8.23;;
34102;SDS011;20381;54.498;18.206;2022-08-11T03:31:22;62.23;;;10.82;;
34102;SDS011;20381;54.498;18.206;2022-08-11T03:34:06;22.22;;;7.80;;
34102;SDS011;20381;54.498;18.206;2022-08-11T03:39:37;13.72;;;6.47;;
34102;SDS011;20381;54.498;18.206;2022-08-11T03:51:12;84.17;;;7.60;;
34102;SDS011;20381;54.498;18.206;2022-08-11T03:54:04;98.90;;;8.43;;
34102;SDS011;20381;54.498;18.206;2022-08-11T04:02:40;89.97;;;5.60;;
34102;SDS011;20381;54.498;18.206;2022-08-11T04:08:53;31.70;;;5.17;;
34102;SDS011;20381;54.498;18.206;2022-08-11T04:15:07;103.72;;;5.95;;
34102;SDS011;20381;54.498;18.206;2022-08-11T04:30:57;21.68;;;5.85;;
34102;SDS011;20381;54.498;18.206;2022-08-11T04:52:01;19.57;;;6.95;;
34102;SDS011;20381;54.498;18.206;2022-08-11T04:58:37;20.65;;;12.10;;
34102;SDS011;20381;54.498;18.206;2022-08-11T05:13:25;13.40;;;9.08;;
34102;SDS011;20381;54.498;18.206;2022-08-11T05:16:16;14.68;;;9.10;;
34102;SDS011;20381;54.498;18.206;2022-08-11T05:19:05;25.77;;;10.13;;
34102;SDS011;20381;54.498;18.206;2022-08-11T05:21:55;29.67;;;10.25;;
34102;SDS011;20381;54.498;18.206;2022-08-11T05:24:51;13.00;;;6.45;;
34102;SDS011;20381;54.498;18.206;2022-08-11T05:28:09;13.80;;;6.97;;
34102;SDS011;20381;54.498;18.206;2022-08-11T05:31:02;18.52;;;7.17;;
34102;SDS011;20381;54.498;18.206;2022-08-11T05:33:52;15.63;;;7.17;;
34102;SDS011;20381;54.498;18.206;2022-08-11T05:36:49;13.20;;;6.20;;
34102;SDS011;20381;54.498;18.206;2022-08-11T05:39:23;22.35;;;7.62;;
34102;SDS011;20381;54.498;18.206;2022-08-11T05:42:11;17.85;;;6.80;;
34102;SDS011;20381;54.498;18.206;2022-08-11T05:45:08;22.70;;;6.08;;
34102;SDS011;20381;54.498;18.206;2022-08-11T05:47:59;19.52;;;5.42;;
34102;SDS011;20381;54.498;18.206;2022-08-11T05:50:52;13.32;;;3.72;;
34102;SDS011;20381;54.498;18.206;2022-08-11T05:53:48;10.82;;;3.35;;
34102;SDS011;20381;54.498;18.206;2022-08-11T05:56:42;13.85;;;3.50;;
34102;SDS011;20381;54.498;18.206;2022-08-11T05:59:19;24.87;;;5.25;;
34102;SDS011;20381;54.498;18.206;2022-08-11T06:01:48;9.08;;;4.47;;
34102;SDS011;20381;54.498;18.206;2022-08-11T06:04:17;4.78;;;2.77;;
34102;SDS011;20381;54.498;18.206;2022-08-11T06:09:30;14.80;;;3.27;;
34102;SDS011;20381;54.498;18.206;2022-08-11T06:11:57;9.90;;;3.15;;
34102;SDS011;20381;54.498;18.206;2022-08-11T06:14:33;6.03;;;2.70;;
34102;SDS011;20381;54.498;18.206;2022-08-11T06:17:09;10.30;;;2.80;;
34102;SDS011;20381;54.498;18.206;2022-08-11T06:19:41;7.40;;;3.22;;
34102;SDS011;20381;54.498;18.206;2022-08-11T06:22:12;13.55;;;2.65;;
34102;SDS011;20381;54.498;18.206;2022-08-11T06:24:50;8.05;;;2.40;;
34102;SDS011;20381;54.498;18.206;2022-08-11T06:27:22;7.20;;;2.37;;
34102;SDS011;20381;54.498;18.206;2022-08-11T06:29:52;23.20;;;12.98;;
34102;SDS011;20381;54.498;18.206;2022-08-11T06:32:20;6.50;;;2.40;;
34102;SDS011;20381;54.498;18.206;2022-08-11T06:38:05;5.53;;;1.80;;
34102;SDS011;20381;54.498;18.206;2022-08-11T06:40:50;8.73;;;2.35;;
34102;SDS011;20381;54.498;18.206;2022-08-11T06:43:53;5.28;;;1.75;;
34102;SDS011;20381;54.498;18.206;2022-08-11T06:46:41;3.58;;;1.20;;
34102;SDS011;20381;54.498;18.206;2022-08-11T06:49:20;8.78;;;1.40;;
34102;SDS011;20381;54.498;18.206;2022-08-11T06:52:10;2.22;;;1.02;;
34102;SDS011;20381;54.498;18.206;2022-08-11T06:54:43;1.85;;;1.00;;
34102;SDS011;20381;54.498;18.206;2022-08-11T06:57:12;4.92;;;1.30;;
34102;SDS011;20381;54.498;18.206;2022-08-11T06:59:58;2.45;;;1.10;;
34102;SDS011;20381;54.498;18.206;2022-08-11T07:02:53;6.28;;;1.50;;
34102;SDS011;20381;54.498;18.206;2022-08-11T07:14:52;3.00;;;1.10;;
34102;SDS011;20381;54.498;18.206;2022-08-11T07:17:50;1.72;;;0.90;;
34102;SDS011;20381;54.498;18.206;2022-08-11T07:20:17;5.10;;;1.20;;
34102;SDS011;20381;54.498;18.206;2022-08-11T07:23:03;4.05;;;1.00;;
34102;SDS011;20381;54.498;18.206;2022-08-11T07:25:51;2.52;;;0.80;;
34102;SDS011;20381;54.498;18.206;2022-08-11T07:28:44;1.80;;;0.72;;
34102;SDS011;20381;54.498;18.206;2022-08-11T07:31:37;1.47;;;0.60;;
34102;SDS011;20381;54.498;18.206;2022-08-11T07:34:29;5.30;;;1.10;;
34102;SDS011;20381;54.498;18.206;2022-08-11T07:37:07;2.37;;;1.20;;
34102;SDS011;20381;54.498;18.206;2022-08-11T07:39:44;8.00;;;1.37;;
34102;SDS011;20381;54.498;18.206;2022-08-11T07:42:21;2.60;;;1.25;;
34102;SDS011;20381;54.498;18.206;2022-08-11T07:44:50;4.10;;;1.60;;
34102;SDS011;20381;54.498;18.206;2022-08-11T07:47:38;4.55;;;1.42;;
34102;SDS011;20381;54.498;18.206;2022-08-11T07:50:24;3.02;;;1.40;;
34102;SDS011;20381;54.498;18.206;2022-08-11T07:53:09;4.72;;;1.50;;
34102;SDS011;20381;54.498;18.206;2022-08-11T07:55:39;1.65;;;1.37;;
34102;SDS011;20381;54.498;18.206;2022-08-11T07:58:08;2.55;;;1.20;;
34102;SDS011;20381;54.498;18.206;2022-08-11T08:00:55;1.95;;;1.25;;
34102;SDS011;20381;54.498;18.206;2022-08-11T08:03:41;1.20;;;1.05;;
34102;SDS011;20381;54.498;18.206;2022-08-11T08:06:27;1.60;;;1.20;;
34102;SDS011;20381;54.498;18.206;2022-08-11T08:09:15;3.08;;;0.95;;
34102;SDS011;20381;54.498;18.206;2022-08-11T08:12:02;1.87;;;0.90;;
34102;SDS011;20381;54.498;18.206;2022-08-11T08:14:49;2.08;;;1.10;;
34102;SDS011;20381;54.498;18.206;2022-08-11T08:17:37;2.37;;;1.10;;
34102;SDS011;20381;54.498;18.206;2022-08-11T08:20:19;1.87;;;0.70;;
34102;SDS011;20381;54.498;18.206;2022-08-11T08:22:50;1.32;;;0.88;;
34102;SDS011;20381;54.498;18.206;2022-08-11T08:25:34;1.07;;;0.80;;
34102;SDS011;20381;54.498;18.206;2022-08-11T08:28:06;2.45;;;1.17;;
34102;SDS011;20381;54.498;18.206;2022-08-11T08:30:37;0.93;;;0.70;;
34102;SDS011;20381;54.498;18.206;2022-08-11T08:33:13;2.10;;;1.10;;
34102;SDS011;20381;54.498;18.206;2022-08-11T08:35:50;2.58;;;1.10;;
34102;SDS011;20381;54.498;18.206;2022-08-11T08:38:24;1.72;;;0.90;;
34102;SDS011;20381;54.498;18.206;2022-08-11T08:40:51;2.60;;;1.10;;
34102;SDS011;20381;54.498;18.206;2022-08-11T08:43:19;2.25;;;1.10;;
34102;SDS011;20381;54.498;18.206;2022-08-11T08:45:51;0.85;;;0.80;;
34102;SDS011;20381;54.498;18.206;2022-08-11T08:48:20;3.10;;;0.78;;
34102;SDS011;20381;54.498;18.206;2022-08-11T08:50:55;1.12;;;0.90;;
34102;SDS011;20381;54.498;18.206;2022-08-11T08:53:47;1.87;;;1.10;;
34102;SDS011;20381;54.498;18.206;2022-08-11T08:56:18;1.80;;;1.20;;
34102;SDS011;20381;54.498;18.206;2022-08-11T08:58:52;6.70;;;1.05;;
34102;SDS011;20381;54.498;18.206;2022-08-11T09:01:20;1.15;;;0.95;;
34102;SDS011;20381;54.498;18.206;2022-08-11T09:03:49;2.12;;;1.00;;
34102;SDS011;20381;54.498;18.206;2022-08-11T09:06:17;4.25;;;1.32;;
34102;SDS011;20381;54.498;18.206;2022-08-11T09:08:45;3.90;;;1.05;;
34102;SDS011;20381;54.498;18.206;2022-08-11T09:11:12;5.03;;;1.02;;
34102;SDS011;20381;54.498;18.206;2022-08-11T09:13:58;5.42;;;1.15;;
34102;SDS011;20381;54.498;18.206;2022-08-11T09:16:28;3.52;;;1.05;;
34102;SDS011;20381;54.498;18.206;2022-08-11T09:18:55;2.62;;;1.20;;
34102;SDS011;20381;54.498;18.206;2022-08-11T09:21:24;2.95;;;1.42;;
34102;SDS011;20381;54.498;18.206;2022-08-11T09:23:51;4.00;;;1.45;;
34102;SDS011;20381;54.498;18.206;2022-08-11T09:26:36;3.02;;;1.27;;
34102;SDS011;20381;54.498;18.206;2022-08-11T09:31:38;3.35;;;1.98;;
34102;SDS011;20381;54.498;18.206;2022-08-11T09:34:08;5.78;;;1.20;;
34102;SDS011;20381;54.498;18.206;2022-08-11T09:36:37;4.00;;;1.90;;
34102;SDS011;20381;54.498;18.206;2022-08-11T09:39:25;1.80;;;1.10;;
34102;SDS011;20381;54.498;18.206;2022-08-11T09:42:16;4.50;;;1.45;;
34102;SDS011;20381;54.498;18.206;2022-08-11T09:44:52;2.37;;;1.20;;
34102;SDS011;20381;54.498;18.206;2022-08-11T09:47:27;3.45;;;1.20;;
34102;SDS011;20381;54.498;18.206;2022-08-11T09:49:57;1.65;;;1.30;;
34102;SDS011;20381;54.498;18.206;2022-08-11T09:52:34;2.83;;;1.12;;
34102;SDS011;20381;54.498;18.206;2022-08-11T09:55:05;3.72;;;1.35;;
34102;SDS011;20381;54.498;18.206;2022-08-11T09:57:41;1.62;;;1.10;;
34102;SDS011;20381;54.498;18.206;2022-08-11T10:00:32;1.30;;;0.80;;
34102;SDS011;20381;54.498;18.206;2022-08-11T10:03:05;3.00;;;0.88;;
34102;SDS011;20381;54.498;18.206;2022-08-11T10:05:35;2.90;;;1.00;;
34102;SDS011;20381;54.498;18.206;2022-08-11T10:08:21;5.10;;;1.20;;
34102;SDS011;20381;54.498;18.206;2022-08-11T10:10:54;2.05;;;0.80;;
34102;SDS011;20381;54.498;18.206;2022-08-11T10:13:25;1.80;;;1.00;;
34102;SDS011;20381;54.498;18.206;2022-08-11T10:16:01;1.32;;;1.00;;
34102;SDS011;20381;54.498;18.206;2022-08-11T10:18:34;2.02;;;1.10;;
34102;SDS011;20381;54.498;18.206;2022-08-11T10:24:05;1.02;;;0.72;;
34102;SDS011;20381;54.498;18.206;2022-08-11T10:29:22;2.98;;;0.75;;
34102;SDS011;20381;54.498;18.206;2022-08-11T10:32:20;2.47;;;0.95;;
34102;SDS011;20381;54.498;18.206;2022-08-11T10:35:12;3.15;;;0.95;;
34102;SDS011;20381;54.498;18.206;2022-08-11T10:37:42;1.67;;;0.75;;
34102;SDS011;20381;54.498;18.206;2022-08-11T10:40:15;2.75;;;0.80;;
34102;SDS011;20381;54.498;18.206;2022-08-11T10:42:48;1.75;;;1.00;;
34102;SDS011;20381;54.498;18.206;2022-08-11T10:45:35;4.37;;;0.80;;
34102;SDS011;20381;54.498;18.206;2022-08-11T10:48:24;4.05;;;1.27;;
34102;SDS011;20381;54.498;18.206;2022-08-11T10:50:54;2.05;;;0.85;;
34102;SDS011;20381;54.498;18.206;2022-08-11T10:53:47;1.07;;;0.60;;
34102;SDS011;20381;54.498;18.206;2022-08-11T10:56:34;3.27;;;0.65;;
34102;SDS011;20381;54.498;18.206;2022-08-11T10:59:23;1.45;;;0.65;;
34102;SDS011;20381;54.498;18.206;2022-08-11T11:01:52;3.58;;;0.90;;
34102;SDS011;20381;54.498;18.206;2022-08-11T11:04:23;1.15;;;0.90;;
34102;SDS011;20381;54.498;18.206;2022-08-11T11:09:43;3.17;;;0.93;;
34102;SDS011;20381;54.498;18.206;2022-08-11T11:15:17;1.15;;;0.78;;
34102;SDS011;20381;54.498;18.206;2022-08-11T11:18:09;0.75;;;0.60;;
34102;SDS011;20381;54.498;18.206;2022-08-11T11:20:52;1.10;;;0.73;;
34102;SDS011;20381;54.498;18.206;2022-08-11T11:23:24;1.77;;;0.72;;
34102;SDS011;20381;54.498;18.206;2022-08-11T11:32:15;4.00;;;0.95;;
34102;SDS011;20381;54.498;18.206;2022-08-11T11:38:16;1.20;;;0.65;;
34102;SDS011;20381;54.498;18.206;2022-08-11T11:40:44;4.55;;;0.90;;
34102;SDS011;20381;54.498;18.206;2022-08-11T11:43:15;0.80;;;0.80;;
34102;SDS011;20381;54.498;18.206;2022-08-11T11:45:42;1.20;;;0.70;;
34102;SDS011;20381;54.498;18.206;2022-08-11T11:48:09;2.30;;;0.75;;
34102;SDS011;20381;54.498;18.206;2022-08-11T11:50:39;3.58;;;1.02;;
34102;SDS011;20381;54.498;18.206;2022-08-11T11:53:07;0.90;;;0.70;;
34102;SDS011;20381;54.498;18.206;2022-08-11T11:55:35;2.95;;;0.75;;
34102;SDS011;20381;54.498;18.206;2022-08-11T11:58:03;1.62;;;0.68;;
34102;SDS011;20381;54.498;18.206;2022-08-11T12:00:48;1.60;;;0.70;;
34102;SDS011;20381;54.498;18.206;2022-08-11T12:03:35;1.12;;;0.62;;
34102;SDS011;20381;54.498;18.206;2022-08-11T12:06:06;5.58;;;0.98;;
34102;SDS011;20381;54.498;18.206;2022-08-11T12:08:35;23.90;;;2.42;;
34102;SDS011;20381;54.498;18.206;2022-08-11T12:11:05;3.52;;;0.80;;
34102;SDS011;20381;54.498;18.206;2022-08-11T12:13:54;4.28;;;0.80;;
34102;SDS011;20381;54.498;18.206;2022-08-11T12:16:24;1.17;;;0.90;;
34102;SDS011;20381;54.498;18.206;2022-08-11T12:18:52;3.55;;;0.75;;
34102;SDS011;20381;54.498;18.206;2022-08-11T12:21:25;1.45;;;0.80;;
34102;SDS011;20381;54.498;18.206;2022-08-11T12:23:54;1.92;;;0.75;;
34102;SDS011;20381;54.498;18.206;2022-08-11T12:26:41;3.02;;;0.80;;
34102;SDS011;20381;54.498;18.206;2022-08-11T12:29:30;4.62;;;1.00;;
34102;SDS011;20381;54.498;18.206;2022-08-11T12:31:58;1.37;;;0.70;;
34102;SDS011;20381;54.498;18.206;2022-08-11T12:34:25;3.08;;;0.90;;
34102;SDS011;20381;54.498;18.206;2022-08-11T12:39:30;1.72;;;0.78;;
34102;SDS011;20381;54.498;18.206;2022-08-11T12:42:21;5.15;;;0.90;;
34102;SDS011;20381;54.498;18.206;2022-08-11T12:45:07;2.05;;;0.88;;
34102;SDS011;20381;54.498;18.206;2022-08-11T12:47:52;1.32;;;0.80;;
34102;SDS011;20381;54.498;18.206;2022-08-11T12:50:54;1.65;;;0.72;;
34102;SDS011;20381;54.498;18.206;2022-08-11T12:53:53;1.05;;;0.60;;
34102;SDS011;20381;54.498;18.206;2022-08-11T12:56:27;2.87;;;0.90;;
34102;SDS011;20381;54.498;18.206;2022-08-11T12:59:16;3.92;;;0.85;;
34102;SDS011;20381;54.498;18.206;2022-08-11T13:02:01;4.33;;;0.80;;
34102;SDS011;20381;54.498;18.206;2022-08-11T13:04:49;1.30;;;0.67;;
34102;SDS011;20381;54.498;18.206;2022-08-11T13:07:17;3.50;;;0.60;;
34102;SDS011;20381;54.498;18.206;2022-08-11T13:09:44;1.00;;;0.68;;
34102;SDS011;20381;54.498;18.206;2022-08-11T13:12:12;1.57;;;0.82;;
34102;SDS011;20381;54.498;18.206;2022-08-11T13:15:01;0.98;;;0.60;;
34102;SDS011;20381;54.498;18.206;2022-08-11T13:17:30;1.22;;;0.57;;
34102;SDS011;20381;54.498;18.206;2022-08-11T13:19:59;1.22;;;0.60;;
34102;SDS011;20381;54.498;18.206;2022-08-11T13:22:29;3.65;;;0.60;;
34102;SDS011;20381;54.498;18.206;2022-08-11T13:24:56;1.07;;;0.75;;
34102;SDS011;20381;54.498;18.206;2022-08-11T13:27:24;1.15;;;0.75;;
34102;SDS011;20381;54.498;18.206;2022-08-11T13:29:51;0.45;;;0.45;;
34102;SDS011;20381;54.498;18.206;2022-08-11T13:32:20;1.55;;;0.62;;
34102;SDS011;20381;54.498;18.206;2022-08-11T13:34:49;2.05;;;0.70;;
34102;SDS011;20381;54.498;18.206;2022-08-11T13:37:16;2.77;;;0.68;;
34102;SDS011;20381;54.498;18.206;2022-08-11T13:39:46;0.70;;;0.60;;
34102;SDS011;20381;54.498;18.206;2022-08-11T13:44:41;1.30;;;0.60;;
34102;SDS011;20381;54.498;18.206;2022-08-11T13:47:09;1.62;;;0.80;;
34102;SDS011;20381;54.498;18.206;2022-08-11T13:49:39;2.83;;;0.62;;
34102;SDS011;20381;54.498;18.206;2022-08-11T13:52:15;2.37;;;0.75;;
34102;SDS011;20381;54.498;18.206;2022-08-11T13:54:40;1.02;;;0.70;;
34102;SDS011;20381;54.498;18.206;2022-08-11T13:57:10;1.55;;;0.70;;
34102;SDS011;20381;54.498;18.206;2022-08-11T13:59:40;239.48;;;17.23;;
34102;SDS011;20381;54.498;18.206;2022-08-11T14:02:12;1.82;;;0.80;;
34102;SDS011;20381;54.498;18.206;2022-08-11T14:04:47;0.93;;;0.50;;
34102;SDS011;20381;54.498;18.206;2022-08-11T14:07:17;1.82;;;0.60;;
34102;SDS011;20381;54.498;18.206;2022-08-11T14:09:47;1.50;;;0.70;;
34102;SDS011;20381;54.498;18.206;2022-08-11T14:12:22;1.85;;;0.50;;
34102;SDS011;20381;54.498;18.206;2022-08-11T14:15:17;2.62;;;0.78;;
34102;SDS011;20381;54.498;18.206;2022-08-11T14:17:51;0.88;;;0.57;;
34102;SDS011;20381;54.498;18.206;2022-08-11T14:20:36;2.02;;;0.70;;
34102;SDS011;20381;54.498;18.206;2022-08-11T14:23:27;0.98;;;0.60;;
34102;SDS011;20381;54.498;18.206;2022-08-11T14:26:06;1.90;;;0.70;;
34102;SDS011;20381;54.498;18.206;2022-08-11T14:31:33;1.75;;;0.75;;
34102;SDS011;20381;54.498;18.206;2022-08-11T14:34:04;0.78;;;0.60;;
34102;SDS011;20381;54.498;18.206;2022-08-11T14:36:41;1.50;;;0.70;;
34102;SDS011;20381;54.498;18.206;2022-08-11T14:39:13;1.53;;;0.70;;
34102;SDS011;20381;54.498;18.206;2022-08-11T14:41:45;1.95;;;0.80;;
34102;SDS011;20381;54.498;18.206;2022-08-11T14:44:37;1.20;;;0.65;;
34102;SDS011;20381;54.498;18.206;2022-08-11T14:47:25;1.77;;;0.80;;
34102;SDS011;20381;54.498;18.206;2022-08-11T14:49:54;0.80;;;0.60;;
34102;SDS011;20381;54.498;18.206;2022-08-11T14:52:22;1.17;;;0.60;;
34102;SDS011;20381;54.498;18.206;2022-08-11T14:54:50;3.60;;;0.80;;
34102;SDS011;20381;54.498;18.206;2022-08-11T14:57:37;0.78;;;0.50;;
34102;SDS011;20381;54.498;18.206;2022-08-11T15:00:06;1.25;;;0.60;;
34102;SDS011;20381;54.498;18.206;2022-08-11T15:02:38;2.80;;;0.70;;
34102;SDS011;20381;54.498;18.206;2022-08-11T15:05:24;0.60;;;0.53;;
34102;SDS011;20381;54.498;18.206;2022-08-11T15:07:52;2.85;;;0.93;;
34102;SDS011;20381;54.498;18.206;2022-08-11T15:10:21;1.25;;;0.80;;
34102;SDS011;20381;54.498;18.206;2022-08-11T15:12:48;0.68;;;0.50;;
34102;SDS011;20381;54.498;18.206;2022-08-11T15:15:16;1.02;;;0.68;;
34102;SDS011;20381;54.498;18.206;2022-08-11T15:20:31;2.15;;;0.68;;
34102;SDS011;20381;54.498;18.206;2022-08-11T15:23:16;2.40;;;1.00;;
34102;SDS011;20381;54.498;18.206;2022-08-11T15:26:03;3.27;;;0.93;;
34102;SDS011;20381;54.498;18.206;2022-08-11T15:28:48;3.10;;;0.85;;
34102;SDS011;20381;54.498;18.206;2022-08-11T15:34:11;1.40;;;0.70;;
34102;SDS011;20381;54.498;18.206;2022-08-11T15:37:00;1.55;;;0.70;;
34102;SDS011;20381;54.498;18.206;2022-08-11T15:43:15;0.70;;;0.70;;
34102;SDS011;20381;54.498;18.206;2022-08-11T15:46:22;1.90;;;0.60;;
34102;SDS011;20381;54.498;18.206;2022-08-11T15:48:57;1.25;;;0.57;;
34102;SDS011;20381;54.498;18.206;2022-08-11T15:51:33;2.20;;;0.75;;
34102;SDS011;20381;54.498;18.206;2022-08-11T15:54:21;0.95;;;0.60;;
34102;SDS011;20381;54.498;18.206;2022-08-11T15:56:50;1.75;;;0.80;;
34102;SDS011;20381;54.498;18.206;2022-08-11T15:59:19;4.28;;;0.82;;
34102;SDS011;20381;54.498;18.206;2022-08-11T16:02:06;2.10;;;0.80;;
34102;SDS011;20381;54.498;18.206;2022-08-11T16:04:57;2.47;;;0.70;;
34102;SDS011;20381;54.498;18.206;2022-08-11T16:07:28;1.30;;;0.60;;
34102;SDS011;20381;54.498;18.206;2022-08-11T16:10:04;1.02;;;0.55;;
34102;SDS011;20381;54.498;18.206;2022-08-11T16:13:16;2.92;;;0.78;;
34102;SDS011;20381;54.498;18.206;2022-08-11T16:15:31;1.27;;;0.70;;
34102;SDS011;20381;54.498;18.206;2022-08-11T16:18:23;0.90;;;0.57;;
34102;SDS011;20381;54.498;18.206;2022-08-11T16:20:56;0.65;;;0.53;;
34102;SDS011;20381;54.498;18.206;2022-08-11T16:23:23;4.00;;;0.82;;
34102;SDS011;20381;54.498;18.206;2022-08-11T16:25:52;2.75;;;0.85;;
34102;SDS011;20381;54.498;18.206;2022-08-11T16:28:22;2.90;;;0.78;;
34102;SDS011;20381;54.498;18.206;2022-08-11T16:30:52;3.00;;;0.80;;
34102;SDS011;20381;54.498;18.206;2022-08-11T16:33:21;0.85;;;0.60;;
34102;SDS011;20381;54.498;18.206;2022-08-11T16:35:51;1.87;;;0.93;;
34102;SDS011;20381;54.498;18.206;2022-08-11T16:38:38;3.58;;;0.85;;
34102;SDS011;20381;54.498;18.206;2022-08-11T16:41:08;4.87;;;0.85;;
34102;SDS011;20381;54.498;18.206;2022-08-11T16:43:39;2.27;;;1.10;;
34102;SDS011;20381;54.498;18.206;2022-08-11T16:46:28;6.08;;;1.07;;
34102;SDS011;20381;54.498;18.206;2022-08-11T16:49:16;5.25;;;1.30;;
34102;SDS011;20381;54.498;18.206;2022-08-11T16:51:58;2.55;;;1.00;;
34102;SDS011;20381;54.498;18.206;2022-08-11T16:54:27;1.77;;;0.70;;
34102;SDS011;20381;54.498;18.206;2022-08-11T16:56:59;2.77;;;0.80;;
34102;SDS011;20381;54.498;18.206;2022-08-11T16:59:49;1.10;;;0.82;;
34102;SDS011;20381;54.498;18.206;2022-08-11T17:02:18;1.20;;;0.90;;
34102;SDS011;20381;54.498;18.206;2022-08-11T17:05:11;5.22;;;0.90;;
34102;SDS011;20381;54.498;18.206;2022-08-11T17:08:00;1.80;;;1.00;;
34102;SDS011;20381;54.498;18.206;2022-08-11T17:10:51;1.50;;;0.70;;
34102;SDS011;20381;54.498;18.206;2022-08-11T17:13:46;1.70;;;0.85;;
34102;SDS011;20381;54.498;18.206;2022-08-11T17:16:19;4.05;;;1.00;;
34102;SDS011;20381;54.498;18.206;2022-08-11T17:21:47;2.02;;;1.00;;
34102;SDS011;20381;54.498;18.206;2022-08-11T17:24:34;2.35;;;0.80;;
34102;SDS011;20381;54.498;18.206;2022-08-11T17:27:09;4.72;;;1.00;;
34102;SDS011;20381;54.498;18.206;2022-08-11T17:29:48;5.85;;;1.25;;
34102;SDS011;20381;54.498;18.206;2022-08-11T17:32:20;4.15;;;1.65;;
34102;SDS011;20381;54.498;18.206;2022-08-11T17:35:18;5.95;;;0.90;;
34102;SDS011;20381;54.498;18.206;2022-08-11T17:38:09;8.48;;;1.22;;
34102;SDS011;20381;54.498;18.206;2022-08-11T17:40:53;3.17;;;1.13;;
34102;SDS011;20381;54.498;18.206;2022-08-11T17:43:32;5.85;;;1.10;;
34102;SDS011;20381;54.498;18.206;2022-08-11T17:46:18;6.42;;;1.40;;
34102;SDS011;20381;54.498;18.206;2022-08-11T17:49:05;6.78;;;1.90;;
34102;SDS011;20381;54.498;18.206;2022-08-11T17:51:34;11.55;;;1.57;;
34102;SDS011;20381;54.498;18.206;2022-08-11T17:54:20;2.33;;;1.30;;
34102;SDS011;20381;54.498;18.206;2022-08-11T17:57:07;2.52;;;1.40;;
34102;SDS011;20381;54.498;18.206;2022-08-11T17:59:53;3.52;;;1.45;;
34102;SDS011;20381;54.498;18.206;2022-08-11T18:02:27;6.08;;;1.72;;
34102;SDS011;20381;54.498;18.206;2022-08-11T18:05:19;11.63;;;1.85;;
34102;SDS011;20381;54.498;18.206;2022-08-11T18:07:50;9.30;;;1.87;;
34102;SDS011;20381;54.498;18.206;2022-08-11T18:10:41;19.40;;;2.90;;
34102;SDS011;20381;54.498;18.206;2022-08-11T18:13:29;16.17;;;2.40;;
34102;SDS011;20381;54.498;18.206;2022-08-11T18:16:18;11.70;;;2.25;;
34102;SDS011;20381;54.498;18.206;2022-08-11T18:19:06;9.53;;;2.35;;
34102;SDS011;20381;54.498;18.206;2022-08-11T18:21:52;13.78;;;2.30;;
34102;SDS011;20381;54.498;18.206;2022-08-11T18:24:54;28.57;;;3.00;;
34102;SDS011;20381;54.498;18.206;2022-08-11T18:27:43;21.70;;;3.42;;
34102;SDS011;20381;54.498;18.206;2022-08-11T18:30:32;34.35;;;4.15;;
34102;SDS011;20381;54.498;18.206;2022-08-11T18:33:19;10.20;;;2.27;;
34102;SDS011;20381;54.498;18.206;2022-08-11T18:36:09;8.98;;;1.67;;
34102;SDS011;20381;54.498;18.206;2022-08-11T18:38:58;5.83;;;1.95;;
34102;SDS011;20381;54.498;18.206;2022-08-11T18:41:44;4.15;;;1.67;;
34102;SDS011;20381;54.498;18.206;2022-08-11T18:44:31;4.17;;;1.70;;
34102;SDS011;20381;54.498;18.206;2022-08-11T18:47:18;2.52;;;1.55;;
34102;SDS011;20381;54.498;18.206;2022-08-11T18:50:05;6.45;;;1.80;;
34102;SDS011;20381;54.498;18.206;2022-08-11T18:52:54;6.58;;;2.02;;
34102;SDS011;20381;54.498;18.206;2022-08-11T18:55:43;8.58;;;1.95;;
34102;SDS011;20381;54.498;18.206;2022-08-11T18:58:31;8.48;;;2.77;;
34102;SDS011;20381;54.498;18.206;2022-08-11T19:01:19;6.80;;;2.65;;
34102;SDS011;20381;54.498;18.206;2022-08-11T19:04:05;8.33;;;2.60;;
34102;SDS011;20381;54.498;18.206;2022-08-11T19:06:52;7.97;;;3.20;;
34102;SDS011;20381;54.498;18.206;2022-08-11T19:09:41;4.85;;;2.62;;
34102;SDS011;20381;54.498;18.206;2022-08-11T19:12:31;14.58;;;2.92;;
34102;SDS011;20381;54.498;18.206;2022-08-11T19:15:22;6.17;;;2.77;;
34102;SDS011;20381;54.498;18.206;2022-08-11T19:18:09;5.10;;;2.83;;
34102;SDS011;20381;54.498;18.206;2022-08-11T19:20:58;4.67;;;2.62;;
34102;SDS011;20381;54.498;18.206;2022-08-11T19:23:46;5.30;;;3.13;;
34102;SDS011;20381;54.498;18.206;2022-08-11T19:26:34;7.22;;;3.12;;
34102;SDS011;20381;54.498;18.206;2022-08-11T19:29:20;10.08;;;3.50;;
34102;SDS011;20381;54.498;18.206;2022-08-11T19:34:52;7.90;;;5.08;;
34102;SDS011;20381;54.498;18.206;2022-08-11T19:37:39;7.78;;;4.42;;
34102;SDS011;20381;54.498;18.206;2022-08-11T19:40:26;6.95;;;3.67;;
34102;SDS011;20381;54.498;18.206;2022-08-11T19:43:12;6.35;;;4.25;;
34102;SDS011;20381;54.498;18.206;2022-08-11T19:48:45;12.45;;;5.42;;
34102;SDS011;20381;54.498;18.206;2022-08-11T19:51:36;10.40;;;5.70;;
34102;SDS011;20381;54.498;18.206;2022-08-11T19:54:23;22.42;;;9.25;;
34102;SDS011;20381;54.498;18.206;2022-08-11T19:57:14;17.62;;;8.53;;